CheckWX is a tool to help pilots better visualize weather data.  It is not intended as a substitute for an official pre-flight weather briefing.

13:08:11 UTC

ENBL METAR
Bringeland Airport
Førde, Norway
Current

48 mins ago

ENBL 221220Z 22011KT 9999 FEW015 BKN020 07/04 Q1032
Observed
Feb-22 @ 12:20 UTC
Wind
  • 220° at 11 KTS
Visibility
10,000+ meters
Flight Rules
MVFR
Cloud Levels
  • Few at 1,500' AGL
  • Broken at 2,000' AGL
Temperature
C / 45°F
Dewpoint
C / 39°F
Humidity
81%
Altimeter
30.47" Hg
Pressure
1031.91 hPa
Previous

1 hour ago

ENBL 221150Z 22009KT 9999 SCT015 BKN020 07/05 Q1031
Observed
Feb-22 @ 11:50 UTC
Wind
  • 220° at 9 KTS
Visibility
10,000+ meters
Flight Rules
MVFR
Cloud Levels
  • Scattered at 1,500' AGL
  • Broken at 2,000' AGL
Temperature
C / 45°F
Dewpoint
C / 41°F
Humidity
87%
Altimeter
30.44" Hg
Pressure
1030.91 hPa
Previous

2 hours ago

ENBL 221120Z 20006KT 9999 SCT015 BKN020 06/04 Q1031
Observed
Feb-22 @ 11:20 UTC
Wind
  • 200° at 6 KTS
Visibility
10,000+ meters
Flight Rules
MVFR
Cloud Levels
  • Scattered at 1,500' AGL
  • Broken at 2,000' AGL
Temperature
C / 43°F
Dewpoint
C / 39°F
Humidity
87%
Altimeter
30.44" Hg
Pressure
1030.91 hPa